Time;durP1;ratioP1;P1;durP2;ratioP2;P2;SDS_P1;SDS_P2;PMS_P1;PMS_P2;Temp;Humidity;BMP_temperature;BMP_pressure;BME280_temperature;BME280_humidity;BME280_pressure;Samples;Min_cycle;Max_cycle;Signal;HPM_P1;HPM_P2
2022/03/26 00:01:06;;;;;;;0.10;0.10;;;3.80;1.00;226.50;231333.00;;;;5066843;28;20205;-70
2022/03/26 00:03:35;;;;;;;0.10;0.10;;;3.80;1.00;226.50;231333.00;;;;5068859;28;20326;-70
2022/03/26 00:06:07;;;;;;;0.10;0.10;;;3.90;1.00;226.50;231333.00;;;;5053142;28;20769;-70
2022/03/26 00:08:36;;;;;;;0.10;0.10;;;3.80;1.00;226.50;231333.00;;;;5069701;28;20194;-70
2022/03/26 00:11:04;;;;;;;0.10;0.10;;;3.70;92.80;226.50;231333.00;;;;5069866;28;20880;-70
2022/03/26 00:13:32;;;;;;;0.20;0.20;;;3.70;47.20;226.50;231333.00;;;;5068933;28;20202;-70
2022/03/26 00:16:01;;;;;;;0.10;0.10;;;3.40;99.90;226.50;231333.00;;;;5069419;28;20194;-70
2022/03/26 00:18:29;;;;;;;0.10;0.10;;;3.30;1.00;226.50;231333.00;;;;5069702;28;20201;-70
2022/03/26 00:20:57;;;;;;;0.10;0.10;;;3.30;1.00;226.50;231333.00;;;;5070102;28;20194;-70
2022/03/26 00:23:25;;;;;;;0.10;0.10;;;3.30;1.00;226.50;231333.00;;;;5068258;28;20218;-69
2022/03/26 00:25:58;;;;;;;0.10;0.10;;;3.40;1.00;226.50;231333.00;;;;5072361;28;20228;-70
2022/03/26 00:28:26;;;;;;;0.10;0.10;;;3.50;1.00;226.50;231333.00;;;;5070900;28;20193;-70
2022/03/26 00:30:54;;;;;;;0.10;0.10;;;3.40;1.00;226.50;231333.00;;;;5089538;28;20190;-70
2022/03/26 00:33:23;;;;;;;0.10;0.10;;;3.30;1.00;226.50;231333.00;;;;5073608;28;20201;-71
2022/03/26 00:35:51;;;;;;;0.10;0.10;;;3.20;1.00;226.50;231333.00;;;;5076318;28;20194;-70
2022/03/26 00:38:19;;;;;;;0.10;0.10;;;3.10;1.00;226.50;231333.00;;;;5078860;28;20651;-70
2022/03/26 00:40:47;;;;;;;0.10;0.10;;;3.00;1.00;226.50;231333.00;;;;5080699;28;20197;-70
2022/03/26 00:43:16;;;;;;;0.10;0.10;;;3.10;1.00;226.50;231333.00;;;;5081367;28;20225;-70
2022/03/26 00:45:44;;;;;;;0.10;0.10;;;3.10;1.00;226.50;231333.00;;;;5080583;28;20190;-70
2022/03/26 00:48:12;;;;;;;0.10;0.10;;;3.10;1.00;226.50;231333.00;;;;5081191;28;20767;-70
2022/03/26 00:50:40;;;;;;;0.10;0.10;;;3.10;1.00;226.50;231333.00;;;;5079751;28;20194;-72
2022/03/26 00:53:08;;;;;;;0.10;0.10;;;3.20;1.00;226.50;231333.00;;;;5079496;28;20251;-71
2022/03/26 00:55:36;;;;;;;0.10;0.10;;;3.30;1.00;226.50;231333.00;;;;5082594;28;20713;-71
2022/03/26 00:58:04;;;;;;;0.10;0.10;;;3.40;1.00;226.50;231333.00;;;;5084074;28;20194;-72
2022/03/26 01:00:34;;;;;;;0.10;0.10;;;3.30;1.00;226.50;231333.00;;;;5074997;28;20198;-71
2022/03/26 01:03:08;;;;;;;0.10;0.10;;;3.20;1.00;226.50;231333.00;;;;5070041;28;20744;-71
2022/03/26 01:05:37;;;;;;;0.10;0.10;;;3.10;1.00;226.50;231333.00;;;;5068700;28;20205;-72
2022/03/26 01:08:06;;;;;;;0.10;0.10;;;3.00;1.00;226.50;231333.00;;;;5085630;28;20642;-72
2022/03/26 01:10:34;;;;;;;0.10;0.10;;;3.10;1.00;226.50;231333.00;;;;5073058;28;20209;-71
2022/03/26 01:13:03;;;;;;;0.10;0.10;;;3.00;1.00;226.50;231333.00;;;;5072971;28;20213;-71
2022/03/26 01:15:32;;;;;;;0.10;0.10;;;3.00;1.00;226.50;231333.00;;;;5072908;28;20225;-71
2022/03/26 01:18:00;;;;;;;0.10;0.10;;;2.90;1.00;226.50;231333.00;;;;5072702;28;20202;-71
2022/03/26 01:20:29;;;;;;;0.13;0.13;;;2.80;1.00;226.50;231333.00;;;;5070242;28;20795;-72
2022/03/26 01:22:57;;;;;;;0.10;0.10;;;2.70;1.00;226.50;231333.00;;;;5072659;28;20235;-71
2022/03/26 01:25:25;;;;;;;0.10;0.10;;;2.70;1.00;226.50;231333.00;;;;5071967;28;20205;-71
2022/03/26 01:27:54;;;;;;;0.10;0.10;;;2.70;1.00;226.50;231333.00;;;;5073147;28;20222;-71
2022/03/26 01:30:22;;;;;;;0.10;0.10;;;2.80;1.00;226.50;231333.00;;;;5071557;28;20240;-71
2022/03/26 01:32:52;;;;;;;0.10;0.10;;;2.80;1.00;226.50;231333.00;;;;5072231;28;20213;-71
2022/03/26 01:35:21;;;;;;;0.10;0.10;;;2.90;1.00;226.50;231333.00;;;;5072897;28;20265;-72
2022/03/26 01:37:49;;;;;;;0.20;0.20;;;2.80;1.00;226.50;231333.00;;;;5072011;28;20201;-72
2022/03/26 01:40:17;;;;;;;0.10;0.10;;;2.90;1.00;226.50;231333.00;;;;5071867;28;20190;-72
2022/03/26 01:42:45;;;;;;;0.10;0.10;;;3.00;1.00;226.50;231333.00;;;;5070552;28;20723;-70
2022/03/26 01:45:15;;;;;;;0.10;0.10;;;3.10;1.00;226.50;231333.00;;;;5071849;28;20261;-71
2022/03/26 01:47:43;;;;;;;0.10;0.10;;;2.90;1.00;226.50;231333.00;;;;5071042;28;20214;-70
2022/03/26 01:50:12;;;;;;;0.00;0.00;;;3.00;1.00;226.50;231333.00;;;;5071290;28;20243;-70
2022/03/26 01:52:40;;;;;;;0.10;0.10;;;2.80;1.00;226.50;231333.00;;;;5065157;28;20263;-71
2022/03/26 01:55:09;;;;;;;0.10;0.10;;;2.60;1.00;226.50;231333.00;;;;5071810;28;20194;-70
2022/03/26 01:57:38;;;;;;;0.10;0.10;;;2.40;1.00;226.50;231333.00;;;;5068022;28;20251;-70
2022/03/26 02:00:08;;;;;;;0.10;0.10;;;2.40;99.90;226.50;231333.00;;;;5064910;28;20199;-71
2022/03/26 02:02:44;;;;;;;0.10;0.10;;;2.40;87.60;226.50;231333.00;;;;5087153;28;20324;-71
2022/03/26 02:05:16;;;;;;;0.10;0.10;;;2.60;74.70;226.50;231333.00;;;;5071152;28;20217;-71
2022/03/26 02:07:46;;;;;;;0.10;0.10;;;2.60;5.70;226.50;231333.00;;;;5071193;28;20890;-70
2022/03/26 02:10:17;;;;;;;0.17;0.17;;;2.60;1.00;226.50;231333.00;;;;5070688;28;20251;-70
2022/03/26 02:12:46;;;;;;;0.13;0.13;;;2.60;1.00;226.50;231333.00;;;;5071143;28;20205;-72
2022/03/26 02:15:16;;;;;;;0.10;0.10;;;2.60;1.00;226.50;231333.00;;;;5071050;28;20190;-71
2022/03/26 02:17:44;;;;;;;0.10;0.10;;;2.40;12.80;226.50;231333.00;;;;5070982;28;20563;-71
2022/03/26 02:20:17;;;;;;;0.10;0.10;;;2.40;25.70;226.50;231333.00;;;;5070737;28;20238;-72
2022/03/26 02:22:45;;;;;;;0.10;0.10;;;2.40;99.90;226.50;231333.00;;;;5071381;28;20213;-75
2022/03/26 02:25:13;;;;;;;0.13;0.13;;;2.50;99.90;226.50;231333.00;;;;5071465;28;20240;-73
2022/03/26 02:27:41;;;;;;;0.10;0.10;;;2.50;95.90;226.50;231333.00;;;;5068654;28;20271;-73
2022/03/26 02:30:10;;;;;;;0.17;0.17;;;2.50;43.50;226.50;231333.00;;;;5068036;28;20190;-74
2022/03/26 02:32:38;;;;;;;0.10;0.10;;;2.60;77.20;226.50;231333.00;;;;5071102;28;20228;-73
2022/03/26 02:35:08;;;;;;;0.10;0.10;;;2.40;56.20;226.50;231333.00;;;;5070335;28;20201;-73
2022/03/26 02:37:37;;;;;;;0.10;0.10;;;2.30;99.90;226.50;231333.00;;;;5069861;28;20697;-74
2022/03/26 02:40:08;;;;;;;0.20;0.20;;;2.30;99.90;226.50;231333.00;;;;5071220;28;20659;-74
2022/03/26 02:42:36;;;;;;;0.10;0.10;;;2.20;99.90;226.50;231333.00;;;;5070490;28;20225;-73
2022/03/26 02:45:05;;;;;;;0.10;0.10;;;2.30;99.90;226.50;231333.00;;;;5070368;28;20198;-74
2022/03/26 02:47:33;;;;;;;0.10;0.10;;;2.30;99.90;226.50;231333.00;;;;5069838;28;20945;-70
2022/03/26 02:50:02;;;;;;;0.10;0.10;;;2.20;99.90;226.50;231333.00;;;;5070451;28;20201;-71
2022/03/26 02:52:31;;;;;;;0.10;0.10;;;2.10;99.90;226.50;231333.00;;;;5071095;28;20220;-72
2022/03/26 02:55:00;;;;;;;0.10;0.10;;;2.00;99.90;226.50;231333.00;;;;5070867;28;20190;-72
2022/03/26 02:57:28;;;;;;;0.20;0.20;;;1.90;99.90;226.50;231333.00;;;;5070825;28;20741;-71
2022/03/26 02:59:59;;;;;;;0.10;0.10;;;1.80;99.90;226.50;231333.00;;;;5071735;28;20255;-71
2022/03/26 03:02:27;;;;;;;0.10;0.10;;;1.70;1.00;226.50;231333.00;;;;5070874;28;20614;-71
2022/03/26 03:04:55;;;;;;;0.10;0.10;;;1.70;1.00;226.50;231333.00;;;;5070910;28;20288;-71
2022/03/26 03:07:23;;;;;;;0.10;0.10;;;1.70;1.00;226.50;231333.00;;;;5069953;28;20224;-71
2022/03/26 03:09:51;;;;;;;0.10;0.10;;;1.70;1.00;226.50;231333.00;;;;5069860;28;20194;-72
2022/03/26 03:12:21;;;;;;;0.10;0.10;;;1.70;1.00;226.50;231333.00;;;;5070040;28;20255;-71
2022/03/26 03:14:49;;;;;;;0.10;0.10;;;1.70;1.00;226.50;231333.00;;;;5070200;28;20197;-72
2022/03/26 03:17:17;;;;;;;0.10;0.10;;;1.60;1.00;226.50;231333.00;;;;5069769;28;20416;-72
2022/03/26 03:19:45;;;;;;;0.08;0.08;;;1.60;1.00;226.50;231333.00;;;;5069432;28;20197;-71
2022/03/26 03:22:13;;;;;;;0.10;0.10;;;1.50;1.00;226.50;231333.00;;;;5069819;28;20722;-71
2022/03/26 03:24:41;;;;;;;0.10;0.10;;;1.50;1.00;226.50;231333.00;;;;5068966;28;20209;-71
2022/03/26 03:27:09;;;;;;;0.13;0.13;;;1.60;1.00;226.50;231333.00;;;;5069684;28;20208;-71
2022/03/26 03:29:38;;;;;;;0.10;0.10;;;1.70;1.00;226.50;231333.00;;;;5068168;28;20217;-69
2022/03/26 03:32:07;;;;;;;0.10;0.10;;;1.80;1.00;226.50;231333.00;;;;5068372;28;20636;-70
2022/03/26 03:34:35;;;;;;;0.10;0.10;;;1.90;1.00;226.50;231333.00;;;;5069220;28;20280;-73
2022/03/26 03:37:04;;;;;;;0.10;0.10;;;2.00;1.00;226.50;231333.00;;;;5069768;28;20242;-73
2022/03/26 03:39:32;;;;;;;0.10;0.10;;;2.10;1.00;226.50;231333.00;;;;5068616;28;20634;-73
2022/03/26 03:42:00;;;;;;;0.10;0.10;;;2.10;99.90;226.50;231333.00;;;;5069870;28;20221;-72
2022/03/26 03:44:28;;;;;;;0.10;0.10;;;2.10;99.90;226.50;231333.00;;;;5066667;28;20703;-72
2022/03/26 03:46:58;;;;;;;0.20;0.20;;;2.20;99.90;226.50;231333.00;;;;5064950;28;20185;-72
2022/03/26 03:49:29;;;;;;;0.10;0.10;;;1.90;99.90;226.50;231333.00;;;;5069684;28;20224;-72
2022/03/26 03:51:57;;;;;;;0.20;0.20;;;1.70;99.90;226.50;231333.00;;;;5068673;28;20769;-70
2022/03/26 03:54:25;;;;;;;0.10;0.10;;;1.60;1.00;226.50;231333.00;;;;5069413;28;20247;-70
2022/03/26 03:56:54;;;;;;;0.10;0.10;;;1.50;1.00;226.50;231333.00;;;;5069458;28;20194;-69
2022/03/26 03:59:22;;;;;;;0.10;0.10;;;1.50;1.00;226.50;231333.00;;;;5069972;28;20255;-72
2022/03/26 04:01:50;;;;;;;0.10;0.10;;;1.50;1.00;226.50;231333.00;;;;5073612;28;20219;-70
2022/03/26 04:04:19;;;;;;;0.10;0.10;;;1.50;1.00;226.50;231333.00;;;;5074301;28;20265;-70
2022/03/26 04:06:47;;;;;;;0.10;0.10;;;1.40;1.00;226.50;231333.00;;;;5073719;28;20244;-70
2022/03/26 04:09:15;;;;;;;0.10;0.10;;;1.50;1.00;226.50;231333.00;;;;5074484;28;20221;-70
2022/03/26 04:11:44;;;;;;;0.10;0.10;;;1.60;1.00;226.50;231333.00;;;;5074693;28;20490;-70
2022/03/26 04:14:12;;;;;;;0.10;0.10;;;1.60;1.00;226.50;231333.00;;;;5074200;28;20190;-70
2022/03/26 04:16:39;;;;;;;0.10;0.10;;;1.60;1.00;226.50;231333.00;;;;5076189;28;20216;-71
2022/03/26 04:19:08;;;;;;;0.10;0.10;;;1.50;1.00;226.50;231333.00;;;;5071148;28;20753;-71
2022/03/26 04:21:37;;;;;;;0.10;0.10;;;1.50;1.00;226.50;231333.00;;;;5075849;28;20597;-70
2022/03/26 04:24:07;;;;;;;0.10;0.10;;;1.50;1.00;226.50;231333.00;;;;5076504;28;20201;-70
2022/03/26 04:26:35;;;;;;;0.10;0.10;;;1.60;1.00;226.50;231333.00;;;;5074040;28;20201;-70
2022/03/26 04:29:04;;;;;;;0.10;0.10;;;1.70;1.00;226.50;231333.00;;;;5067992;28;20627;-70
2022/03/26 04:31:31;;;;;;;0.10;0.10;;;1.50;1.00;226.50;231333.00;;;;5074591;28;20217;-70
2022/03/26 04:34:01;;;;;;;0.10;0.10;;;1.50;1.00;226.50;231333.00;;;;5073200;28;20193;-70
2022/03/26 04:36:30;;;;;;;0.10;0.10;;;1.40;1.00;226.50;231333.00;;;;5074263;28;20284;-70
2022/03/26 04:39:00;;;;;;;0.10;0.10;;;1.40;1.00;226.50;231333.00;;;;5073918;28;20210;-70
2022/03/26 04:41:28;;;;;;;0.17;0.17;;;1.40;1.00;226.50;231333.00;;;;5073431;28;20784;-70
2022/03/26 04:43:56;;;;;;;0.10;0.10;;;1.40;1.00;226.50;231333.00;;;;5069861;28;20285;-70
2022/03/26 04:46:24;;;;;;;0.10;0.10;;;1.40;1.00;226.50;231333.00;;;;5069964;28;20190;-70
2022/03/26 04:48:52;;;;;;;0.20;0.20;;;1.50;1.00;226.50;231333.00;;;;5073254;28;20826;-71
2022/03/26 04:51:20;;;;;;;0.10;0.10;;;1.50;1.00;226.50;231333.00;;;;5072989;28;20250;-70
2022/03/26 04:53:48;;;;;;;0.10;0.10;;;1.60;1.00;226.50;231333.00;;;;5071152;28;20197;-70
2022/03/26 04:56:17;;;;;;;0.10;0.10;;;1.50;1.00;226.50;231333.00;;;;5072577;28;20196;-70
2022/03/26 04:58:45;;;;;;;0.10;0.10;;;1.60;1.00;226.50;231333.00;;;;5071651;28;20204;-70
2022/03/26 05:01:13;;;;;;;0.20;0.20;;;1.50;1.00;226.50;231333.00;;;;5068802;28;20224;-70
2022/03/26 05:03:41;;;;;;;0.10;0.10;;;1.50;1.00;226.50;231333.00;;;;5071870;28;20957;-70
2022/03/26 05:06:09;;;;;;;0.10;0.10;;;1.40;1.00;226.50;231333.00;;;;5085784;28;20253;-70
2022/03/26 05:08:37;;;;;;;0.10;0.10;;;1.30;1.00;226.50;231333.00;;;;5072665;28;20244;-72
2022/03/26 05:11:05;;;;;;;0.10;0.10;;;1.50;1.00;226.50;231333.00;;;;5072401;28;20194;-71
2022/03/26 05:13:35;;;;;;;0.10;0.10;;;1.70;1.00;226.50;231333.00;;;;5072613;28;20639;-70
2022/03/26 05:16:03;;;;;;;0.10;0.10;;;1.80;1.00;226.50;231333.00;;;;5071919;28;20656;-71
2022/03/26 05:18:31;;;;;;;0.10;0.10;;;1.90;1.00;226.50;231333.00;;;;5072876;28;20572;-70
2022/03/26 05:20:59;;;;;;;0.10;0.10;;;1.90;1.00;226.50;231333.00;;;;5072270;28;20252;-70
2022/03/26 05:23:27;;;;;;;0.10;0.10;;;1.80;99.90;226.50;231333.00;;;;5071986;28;20224;-70
2022/03/26 05:25:56;;;;;;;0.10;0.10;;;1.80;1.00;226.50;231333.00;;;;5070366;28;20872;-72
2022/03/26 05:28:24;;;;;;;0.20;0.20;;;1.80;1.00;226.50;231333.00;;;;5071876;28;20190;-69
2022/03/26 05:30:54;;;;;;;0.10;0.10;;;1.70;1.00;226.50;231333.00;;;;5068660;28;20186;-71
2022/03/26 05:33:22;;;;;;;0.20;0.20;;;1.70;1.00;226.50;231333.00;;;;5071598;28;20219;-72
2022/03/26 05:35:50;;;;;;;0.10;0.10;;;1.60;1.00;226.50;231333.00;;;;5072954;28;20531;-72
2022/03/26 05:38:18;;;;;;;0.10;0.10;;;1.60;1.00;226.50;231333.00;;;;5072397;28;20682;-71
2022/03/26 05:40:46;;;;;;;0.10;0.10;;;1.50;1.00;226.50;231333.00;;;;5072783;28;20194;-71
2022/03/26 05:43:14;;;;;;;0.10;0.10;;;1.50;1.00;226.50;231333.00;;;;5068862;28;20218;-71
2022/03/26 05:45:42;;;;;;;0.10;0.10;;;1.40;1.00;226.50;231333.00;;;;5088344;28;20205;-71
2022/03/26 05:48:11;;;;;;;0.20;0.20;;;1.30;1.00;226.50;231333.00;;;;5071579;28;20198;-71
2022/03/26 05:50:39;;;;;;;0.10;0.10;;;1.40;1.00;226.50;231333.00;;;;5072480;28;20225;-71
2022/03/26 05:53:07;;;;;;;0.20;0.20;;;1.40;1.00;226.50;231333.00;;;;5071116;28;20259;-71
2022/03/26 05:55:36;;;;;;;0.10;0.10;;;1.40;1.00;226.50;231333.00;;;;5069052;28;20255;-70
2022/03/26 05:58:05;;;;;;;0.10;0.10;;;1.40;1.00;226.50;231333.00;;;;5069701;28;20197;-69
2022/03/26 06:00:33;;;;;;;0.20;0.20;;;1.60;1.00;226.50;231333.00;;;;5071961;28;20209;-71
2022/03/26 06:03:01;;;;;;;0.10;0.10;;;1.60;1.00;226.50;231333.00;;;;5070377;28;20245;-70
2022/03/26 06:05:30;;;;;;;0.10;0.10;;;1.70;1.00;226.50;231333.00;;;;5071518;28;20197;-70
2022/03/26 06:07:58;;;;;;;0.10;0.10;;;1.70;1.00;226.50;231333.00;;;;5071247;28;20227;-70
2022/03/26 06:10:26;;;;;;;0.10;0.10;;;1.80;1.00;226.50;231333.00;;;;5070835;28;20347;-71
2022/03/26 06:12:55;;;;;;;0.10;0.10;;;1.90;1.00;226.50;231333.00;;;;5071793;28;20214;-71
2022/03/26 06:15:23;;;;;;;0.10;0.10;;;2.00;1.00;226.50;231333.00;;;;5071170;28;20193;-72
2022/03/26 06:18:11;;;;;;;0.10;0.10;;;2.10;1.00;226.50;231333.00;;;;5071524;28;20194;-71
2022/03/26 06:20:42;;;;;;;0.10;0.10;;;2.20;1.00;226.50;231333.00;;;;5071912;28;20610;-70
2022/03/26 06:23:10;;;;;;;0.10;0.10;;;2.30;1.00;226.50;231333.00;;;;5070137;28;20274;-70
2022/03/26 06:25:38;;;;;;;0.10;0.10;;;2.30;1.00;226.50;231333.00;;;;5066952;28;20198;-71
2022/03/26 06:28:07;;;;;;;0.10;0.10;;;2.40;1.00;226.50;231333.00;;;;5071350;28;20190;-72
2022/03/26 06:30:35;;;;;;;0.10;0.10;;;2.40;99.90;226.50;231333.00;;;;5070844;28;20221;-72
2022/03/26 06:33:03;;;;;;;0.10;0.10;;;2.30;99.90;226.50;231333.00;;;;5071233;28;20270;-73
2022/03/26 06:35:31;;;;;;;0.10;0.10;;;2.20;99.90;226.50;231333.00;;;;5071389;28;20227;-71
2022/03/26 06:38:00;;;;;;;0.10;0.10;;;2.20;99.90;226.50;231333.00;;;;5065813;28;20243;-71
2022/03/26 06:40:28;;;;;;;0.10;0.10;;;2.30;1.00;226.50;231333.00;;;;5070683;28;20992;-71
2022/03/26 06:42:56;;;;;;;0.10;0.10;;;2.30;1.00;226.50;231333.00;;;;5070152;28;20222;-72
2022/03/26 06:45:24;;;;;;;0.17;0.17;;;2.40;1.00;226.50;231333.00;;;;5065306;28;20194;-72
2022/03/26 06:47:52;;;;;;;0.10;0.10;;;2.40;99.90;226.50;231333.00;;;;5070954;28;20194;-74
2022/03/26 06:50:20;;;;;;;0.10;0.10;;;2.40;1.00;226.50;231333.00;;;;5071261;28;20221;-74
2022/03/26 06:52:49;;;;;;;0.10;0.10;;;2.50;1.00;226.50;231333.00;;;;5072100;28;20229;-74
2022/03/26 06:55:19;;;;;;;0.10;0.10;;;2.50;1.00;226.50;231333.00;;;;5071783;28;20194;-74
2022/03/26 06:57:47;;;;;;;0.13;0.13;;;2.60;1.00;226.50;231333.00;;;;5070619;28;20198;-74
2022/03/26 07:00:16;;;;;;;0.10;0.10;;;2.80;99.90;226.50;231333.00;;;;5071790;28;20194;-73
2022/03/26 07:02:44;;;;;;;0.10;0.10;;;2.90;99.90;226.50;231333.00;;;;5068809;28;20214;-74
2022/03/26 07:05:12;;;;;;;0.20;0.20;;;3.00;99.90;226.50;231333.00;;;;5065057;28;20217;-75
2022/03/26 07:07:40;;;;;;;0.10;0.10;;;3.00;99.90;226.50;231333.00;;;;5068036;28;20205;-74
2022/03/26 07:10:10;;;;;;;0.20;0.20;;;3.20;99.90;226.50;231333.00;;;;5073500;28;20221;-75
2022/03/26 07:12:39;;;;;;;0.10;0.10;;;3.20;99.90;226.50;231333.00;;;;5078657;28;20805;-74
2022/03/26 07:15:08;;;;;;;0.10;0.10;;;3.30;99.90;226.50;231333.00;;;;5075922;28;20289;-74
2022/03/26 07:17:40;;;;;;;0.10;0.10;;;3.50;99.90;226.50;231333.00;;;;5079621;28;20255;-75
2022/03/26 07:20:10;;;;;;;0.10;0.10;;;3.60;99.90;226.50;231333.00;;;;5077999;28;20224;-74
2022/03/26 07:22:38;;;;;;;0.10;0.10;;;3.70;99.90;226.50;231333.00;;;;5080109;28;20291;-74
2022/03/26 07:25:08;;;;;;;0.10;0.10;;;3.90;99.90;226.50;231333.00;;;;5071571;28;20193;-74
2022/03/26 07:27:39;;;;;;;0.10;0.10;;;4.00;99.90;226.50;231333.00;;;;5071808;28;20205;-74
2022/03/26 07:30:10;;;;;;;0.10;0.10;;;4.20;99.90;226.50;231333.00;;;;5071532;28;20241;-74
2022/03/26 07:32:39;;;;;;;0.10;0.10;;;4.40;99.90;226.50;231333.00;;;;5074007;28;20220;-74
2022/03/26 07:35:08;;;;;;;0.10;0.10;;;4.60;1.00;226.50;231333.00;;;;5071763;28;20194;-74
2022/03/26 07:37:39;;;;;;;0.10;0.10;;;4.70;1.00;226.50;231333.00;;;;5071684;28;20250;-74
2022/03/26 07:40:09;;;;;;;0.10;0.10;;;4.90;1.00;226.50;231333.00;;;;5071691;28;20663;-74
2022/03/26 07:42:38;;;;;;;0.10;0.10;;;5.00;1.00;226.50;231333.00;;;;5088049;28;20225;-74
2022/03/26 07:45:08;;;;;;;0.10;0.10;;;5.10;1.00;226.50;231333.00;;;;5070421;28;20276;-75
2022/03/26 07:47:37;;;;;;;0.10;0.10;;;5.30;1.00;226.50;231333.00;;;;5074876;28;20189;-73
2022/03/26 07:50:08;;;;;;;0.10;0.10;;;5.40;1.00;226.50;231333.00;;;;5074547;28;20206;-73
2022/03/26 07:52:36;;;;;;;0.10;0.10;;;5.50;99.90;226.50;231333.00;;;;5070493;28;20237;-73
2022/03/26 07:55:06;;;;;;;0.10;0.10;;;5.60;99.90;226.50;231333.00;;;;5068490;28;20201;-73
2022/03/26 07:57:34;;;;;;;0.10;0.10;;;5.70;99.90;226.50;231333.00;;;;5067876;28;20748;-73
2022/03/26 08:00:05;;;;;;;0.10;0.10;;;5.80;99.90;226.50;231333.00;;;;5066579;28;20221;-73
2022/03/26 08:02:40;;;;;;;0.10;0.10;;;5.90;99.90;226.50;231333.00;;;;5079847;28;20280;-73
2022/03/26 08:05:08;;;;;;;0.10;0.10;;;6.00;99.90;226.50;231333.00;;;;5081647;28;20200;-73
2022/03/26 08:07:36;;;;;;;0.10;0.10;;;6.10;99.90;226.50;231333.00;;;;5080378;28;20251;-73
2022/03/26 08:10:05;;;;;;;0.10;0.10;;;6.20;98.40;226.50;231333.00;;;;5080491;28;20648;-73
2022/03/26 08:12:34;;;;;;;0.03;0.03;;;6.30;42.50;226.50;231333.00;;;;5079241;28;20694;-73
2022/03/26 08:15:04;;;;;;;0.10;0.10;;;6.50;1.00;226.50;231333.00;;;;5079675;28;20200;-73
2022/03/26 08:17:32;;;;;;;0.10;0.10;;;6.70;1.00;226.50;231333.00;;;;5075762;28;20201;-73
2022/03/26 08:20:00;;;;;;;0.10;0.10;;;6.80;1.00;226.50;231333.00;;;;5071943;28;20185;-73
2022/03/26 08:22:28;;;;;;;0.10;0.10;;;7.00;1.00;226.50;231333.00;;;;5068756;28;20214;-73
2022/03/26 08:24:56;;;;;;;0.10;0.10;;;7.10;99.90;226.50;231333.00;;;;5068551;28;20186;-73
2022/03/26 08:27:24;;;;;;;0.10;0.10;;;7.30;99.90;226.50;231333.00;;;;5069591;28;20197;-72
2022/03/26 08:29:52;;;;;;;0.05;0.05;;;7.50;1.00;226.50;231333.00;;;;5069461;28;20201;-73
2022/03/26 08:32:22;;;;;;;0.00;0.00;;;7.70;1.00;226.50;231333.00;;;;5067430;28;20229;-73
2022/03/26 08:34:50;;;;;;;0.03;0.03;;;7.80;99.90;226.50;231333.00;;;;5070165;28;20198;-73
2022/03/26 08:37:18;;;;;;;0.10;0.10;;;8.00;1.00;226.50;231333.00;;;;5069061;28;20594;-73
2022/03/26 08:39:46;;;;;;;0.10;0.10;;;8.20;1.00;226.50;231333.00;;;;5065433;28;20190;-73
2022/03/26 08:42:14;;;;;;;0.00;0.00;;;8.30;99.90;226.50;231333.00;;;;5069650;28;20267;-74
2022/03/26 08:44:42;;;;;;;0.03;0.03;;;8.50;1.00;226.50;231333.00;;;;5067719;28;20225;-74
2022/03/26 08:47:11;;;;;;;0.10;0.10;;;8.50;3.70;226.50;231333.00;;;;5070845;28;20189;-74
2022/03/26 08:49:44;;;;;;;0.10;0.10;;;8.70;1.00;226.50;231333.00;;;;5073168;28;20221;-74
2022/03/26 08:52:12;;;;;;;0.10;0.10;;;8.80;1.00;226.50;231333.00;;;;5072532;28;20467;-74
2022/03/26 08:54:40;;;;;;;0.10;0.10;;;8.90;1.00;226.50;231333.00;;;;5087203;28;20201;-74
2022/03/26 08:57:08;;;;;;;0.10;0.10;;;9.00;1.00;226.50;231333.00;;;;5071975;28;20196;-74
2022/03/26 08:59:36;;;;;;;0.00;0.00;;;9.20;1.00;226.50;231333.00;;;;5073461;28;20729;-74
2022/03/26 09:02:04;;;;;;;0.10;0.10;;;9.30;99.90;226.50;231333.00;;;;5073136;28;20248;-74
2022/03/26 09:04:33;;;;;;;0.10;0.10;;;9.40;1.00;226.50;231333.00;;;;5073641;28;20202;-75
2022/03/26 09:07:03;;;;;;;0.10;0.10;;;9.50;1.00;226.50;231333.00;;;;5068066;28;20540;-75
2022/03/26 09:09:31;;;;;;;0.10;0.10;;;9.60;1.00;226.50;231333.00;;;;5072032;28;20217;-75
2022/03/26 09:11:59;;;;;;;0.10;0.10;;;9.70;1.00;226.50;231333.00;;;;5067335;28;20222;-74
2022/03/26 09:14:27;;;;;;;0.00;0.00;;;9.80;99.90;226.50;231333.00;;;;5072531;28;20309;-74
2022/03/26 09:16:55;;;;;;;0.10;0.10;;;9.90;27.70;226.50;231333.00;;;;5067193;28;20785;-74
2022/03/26 09:19:23;;;;;;;0.10;0.10;;;10.10;1.00;226.50;231333.00;;;;5071075;28;20793;-74
2022/03/26 09:21:51;;;;;;;0.10;0.10;;;10.20;1.00;226.50;231333.00;;;;5068774;28;20222;-75
2022/03/26 09:24:20;;;;;;;0.10;0.10;;;10.40;1.00;226.50;231333.00;;;;5071399;28;20675;-75
2022/03/26 09:26:48;;;;;;;0.10;0.10;;;10.50;1.00;226.50;231333.00;;;;5070754;28;20236;-75
2022/03/26 09:29:17;;;;;;;0.10;0.10;;;10.60;1.00;226.50;231333.00;;;;5070455;28;20198;-75
2022/03/26 09:31:45;;;;;;;0.10;0.10;;;10.70;1.00;226.50;231333.00;;;;5066884;28;20214;-75
2022/03/26 09:34:13;;;;;;;0.10;0.10;;;10.70;1.00;226.50;231333.00;;;;5064207;28;20197;-75
2022/03/26 09:36:42;;;;;;;0.10;0.10;;;10.80;1.00;226.50;231333.00;;;;5066372;28;20193;-75
2022/03/26 09:39:10;;;;;;;0.10;0.10;;;11.10;99.90;226.50;231333.00;;;;5070524;28;20201;-75
2022/03/26 09:41:40;;;;;;;0.10;0.10;;;11.30;99.90;226.50;231333.00;;;;5071840;28;20217;-76
2022/03/26 09:44:09;;;;;;;0.10;0.10;;;11.40;99.90;226.50;231333.00;;;;5071947;28;20244;-75
2022/03/26 09:46:38;;;;;;;0.10;0.10;;;11.50;99.90;226.50;231333.00;;;;5069891;28;20206;-75
2022/03/26 09:49:09;;;;;;;0.10;0.10;;;11.60;99.90;226.50;231333.00;;;;5067761;28;20206;-74
2022/03/26 09:51:37;;;;;;;0.10;0.10;;;11.70;99.90;226.50;231333.00;;;;5072061;28;20217;-75
2022/03/26 09:54:05;;;;;;;0.10;0.10;;;11.70;99.90;226.50;231333.00;;;;5073524;28;20236;-74
2022/03/26 09:56:34;;;;;;;0.10;0.10;;;11.80;99.90;226.50;231333.00;;;;5065644;28;20237;-74
2022/03/26 09:59:03;;;;;;;0.00;0.00;;;12.00;99.90;226.50;231333.00;;;;5071948;28;20197;-74
2022/03/26 10:01:31;;;;;;;0.10;0.10;;;12.10;99.90;226.50;231333.00;;;;5067627;28;20226;-74
2022/03/26 10:04:12;;;;;;;0.10;0.10;;;12.10;99.90;226.50;231333.00;;;;5071094;28;20229;-74
2022/03/26 10:06:50;;;;;;;0.10;0.10;;;12.20;99.90;226.50;231333.00;;;;5072126;28;20202;-74
2022/03/26 10:09:34;;;;;;;0.10;0.10;;;12.30;99.90;226.50;231333.00;;;;5071598;28;20699;-75
2022/03/26 10:12:05;;;;;;;0.00;0.00;;;12.40;99.90;226.50;231333.00;;;;5071660;28;20638;-76
2022/03/26 10:14:45;;;;;;;0.10;0.10;;;12.50;99.90;226.50;231333.00;;;;5072163;28;20202;-75
2022/03/26 10:17:19;;;;;;;0.10;0.10;;;12.80;95.70;226.50;231333.00;;;;5067991;28;20543;-75
2022/03/26 10:19:50;;;;;;;0.00;0.00;;;13.00;82.40;226.50;231333.00;;;;5072654;28;20712;-76
2022/03/26 10:22:34;;;;;;;0.10;0.10;;;13.00;76.00;226.50;231333.00;;;;5071161;28;20217;-76
2022/03/26 10:25:07;;;;;;;0.10;0.10;;;13.20;52.30;226.50;231333.00;;;;5068353;28;20221;-76
2022/03/26 10:27:39;;;;;;;0.03;0.03;;;13.30;43.40;226.50;231333.00;;;;5061311;28;20201;-76
2022/03/26 10:30:13;;;;;;;0.10;0.10;;;13.50;27.80;226.50;231333.00;;;;5067770;28;20255;-76
2022/03/26 10:32:45;;;;;;;0.03;0.03;;;13.70;20.70;226.50;231333.00;;;;5086317;28;20213;-74
2022/03/26 10:35:21;;;;;;;0.10;0.10;;;13.80;12.90;226.50;231333.00;;;;5072090;28;20198;-75
2022/03/26 10:37:56;;;;;;;0.10;0.10;;;14.00;8.10;226.50;231333.00;;;;5071284;28;20185;-77
2022/03/26 10:40:31;;;;;;;0.10;0.10;;;14.10;12.50;226.50;231333.00;;;;5072147;28;20190;-77
2022/03/26 10:43:05;;;;;;;0.10;0.10;;;14.20;11.90;226.50;231333.00;;;;5072617;28;20590;-77
2022/03/26 10:45:37;;;;;;;0.10;0.10;;;14.30;7.70;226.50;231333.00;;;;5062881;28;20217;-75
2022/03/26 10:48:10;;;;;;;0.10;0.10;;;14.50;1.00;226.50;231333.00;;;;5070339;28;20191;-75
2022/03/26 10:50:39;;;;;;;0.10;0.10;;;14.70;3.10;226.50;231333.00;;;;5065029;28;20722;-75
2022/03/26 10:53:11;;;;;;;0.00;0.00;;;14.80;1.00;226.50;231333.00;;;;5072930;28;20225;-75
2022/03/26 10:55:40;;;;;;;0.00;0.00;;;14.80;1.00;226.50;231333.00;;;;5074582;28;20204;-74
2022/03/26 10:58:09;;;;;;;0.10;0.10;;;14.90;1.00;226.50;231333.00;;;;5071310;28;20185;-74